sensor_id;sensor_type;location;lat;lon;timestamp;P1;durP1;ratioP1;P2;durP2;ratioP2
25449;SDS011;13371;52.080;5.624;2023-11-22T00:00:08;15.15;;;9.00;;
25449;SDS011;13371;52.080;5.624;2023-11-22T00:02:38;19.90;;;10.15;;
25449;SDS011;13371;52.080;5.624;2023-11-22T00:05:07;19.15;;;10.00;;
25449;SDS011;13371;52.080;5.624;2023-11-22T00:07:34;16.17;;;9.30;;
25449;SDS011;13371;52.080;5.624;2023-11-22T00:10:00;16.92;;;9.40;;
25449;SDS011;13371;52.080;5.624;2023-11-22T00:12:26;17.33;;;9.02;;
25449;SDS011;13371;52.080;5.624;2023-11-22T00:14:53;15.52;;;8.93;;
25449;SDS011;13371;52.080;5.624;2023-11-22T00:17:19;16.50;;;9.40;;
25449;SDS011;13371;52.080;5.624;2023-11-22T00:19:45;17.60;;;10.05;;
25449;SDS011;13371;52.080;5.624;2023-11-22T00:22:11;16.73;;;8.52;;
25449;SDS011;13371;52.080;5.624;2023-11-22T00:24:39;17.00;;;9.30;;
25449;SDS011;13371;52.080;5.624;2023-11-22T00:27:06;20.73;;;9.68;;
25449;SDS011;13371;52.080;5.624;2023-11-22T00:29:32;17.77;;;10.48;;
25449;SDS011;13371;52.080;5.624;2023-11-22T00:31:57;16.75;;;9.43;;
25449;SDS011;13371;52.080;5.624;2023-11-22T00:34:23;19.52;;;9.82;;
25449;SDS011;13371;52.080;5.624;2023-11-22T00:36:49;19.52;;;10.38;;
25449;SDS011;13371;52.080;5.624;2023-11-22T00:39:16;28.35;;;10.02;;
25449;SDS011;13371;52.080;5.624;2023-11-22T00:41:41;17.63;;;9.65;;
25449;SDS011;13371;52.080;5.624;2023-11-22T00:44:09;19.48;;;10.45;;
25449;SDS011;13371;52.080;5.624;2023-11-22T00:46:35;17.70;;;9.43;;
25449;SDS011;13371;52.080;5.624;2023-11-22T00:49:02;17.70;;;9.63;;
25449;SDS011;13371;52.080;5.624;2023-11-22T00:51:29;15.95;;;9.82;;
25449;SDS011;13371;52.080;5.624;2023-11-22T00:53:56;16.63;;;9.68;;
25449;SDS011;13371;52.080;5.624;2023-11-22T00:56:22;19.30;;;9.60;;
25449;SDS011;13371;52.080;5.624;2023-11-22T00:58:48;18.67;;;9.93;;
25449;SDS011;13371;52.080;5.624;2023-11-22T01:01:14;15.93;;;9.23;;
25449;SDS011;13371;52.080;5.624;2023-11-22T01:03:43;16.25;;;9.00;;
25449;SDS011;13371;52.080;5.624;2023-11-22T01:06:09;18.33;;;9.50;;
25449;SDS011;13371;52.080;5.624;2023-11-22T01:08:35;16.63;;;8.75;;
25449;SDS011;13371;52.080;5.624;2023-11-22T01:11:01;16.52;;;8.77;;
25449;SDS011;13371;52.080;5.624;2023-11-22T01:13:28;18.02;;;9.57;;
25449;SDS011;13371;52.080;5.624;2023-11-22T01:15:54;15.63;;;9.45;;
25449;SDS011;13371;52.080;5.624;2023-11-22T01:18:20;14.82;;;8.65;;
25449;SDS011;13371;52.080;5.624;2023-11-22T01:20:45;14.73;;;8.93;;
25449;SDS011;13371;52.080;5.624;2023-11-22T01:23:11;17.02;;;9.18;;
25449;SDS011;13371;52.080;5.624;2023-11-22T01:25:37;20.65;;;9.85;;
25449;SDS011;13371;52.080;5.624;2023-11-22T01:28:02;15.48;;;8.80;;
25449;SDS011;13371;52.080;5.624;2023-11-22T01:30:28;19.75;;;10.00;;
25449;SDS011;13371;52.080;5.624;2023-11-22T01:32:54;15.30;;;9.65;;
25449;SDS011;13371;52.080;5.624;2023-11-22T01:35:20;16.67;;;9.50;;
25449;SDS011;13371;52.080;5.624;2023-11-22T01:37:46;18.13;;;9.55;;
25449;SDS011;13371;52.080;5.624;2023-11-22T01:40:12;16.05;;;9.15;;
25449;SDS011;13371;52.080;5.624;2023-11-22T01:42:38;18.35;;;9.57;;
25449;SDS011;13371;52.080;5.624;2023-11-22T01:45:06;15.75;;;8.77;;
25449;SDS011;13371;52.080;5.624;2023-11-22T01:47:32;16.90;;;9.38;;
25449;SDS011;13371;52.080;5.624;2023-11-22T01:49:59;18.40;;;9.32;;
25449;SDS011;13371;52.080;5.624;2023-11-22T01:52:25;14.30;;;8.23;;
25449;SDS011;13371;52.080;5.624;2023-11-22T01:54:51;15.85;;;9.07;;
25449;SDS011;13371;52.080;5.624;2023-11-22T01:57:17;21.83;;;10.68;;
25449;SDS011;13371;52.080;5.624;2023-11-22T01:59:43;15.82;;;8.80;;
25449;SDS011;13371;52.080;5.624;2023-11-22T02:02:10;14.70;;;8.32;;
25449;SDS011;13371;52.080;5.624;2023-11-22T02:04:35;16.45;;;9.38;;
25449;SDS011;13371;52.080;5.624;2023-11-22T02:07:01;15.55;;;8.85;;
25449;SDS011;13371;52.080;5.624;2023-11-22T02:09:27;20.08;;;9.13;;
25449;SDS011;13371;52.080;5.624;2023-11-22T02:11:52;15.82;;;8.88;;
25449;SDS011;13371;52.080;5.624;2023-11-22T02:14:18;17.30;;;9.15;;
25449;SDS011;13371;52.080;5.624;2023-11-22T02:16:44;15.00;;;8.52;;
25449;SDS011;13371;52.080;5.624;2023-11-22T02:19:18;19.70;;;9.48;;
25449;SDS011;13371;52.080;5.624;2023-11-22T02:24:09;17.80;;;8.20;;
25449;SDS011;13371;52.080;5.624;2023-11-22T02:26:35;21.30;;;9.40;;
25449;SDS011;13371;52.080;5.624;2023-11-22T02:29:01;17.45;;;10.23;;
25449;SDS011;13371;52.080;5.624;2023-11-22T02:31:29;17.80;;;9.30;;
25449;SDS011;13371;52.080;5.624;2023-11-22T02:33:55;22.20;;;10.05;;
25449;SDS011;13371;52.080;5.624;2023-11-22T02:36:20;23.30;;;9.85;;
25449;SDS011;13371;52.080;5.624;2023-11-22T02:38:47;19.88;;;10.05;;
25449;SDS011;13371;52.080;5.624;2023-11-22T02:41:13;20.08;;;9.55;;
25449;SDS011;13371;52.080;5.624;2023-11-22T02:43:38;16.17;;;8.35;;
25449;SDS011;13371;52.080;5.624;2023-11-22T02:46:04;18.08;;;8.43;;
25449;SDS011;13371;52.080;5.624;2023-11-22T02:48:30;16.92;;;9.35;;
25449;SDS011;13371;52.080;5.624;2023-11-22T02:50:55;14.15;;;7.55;;
25449;SDS011;13371;52.080;5.624;2023-11-22T02:53:21;17.88;;;9.45;;
25449;SDS011;13371;52.080;5.624;2023-11-22T02:55:47;16.27;;;9.02;;
25449;SDS011;13371;52.080;5.624;2023-11-22T02:58:12;21.20;;;8.77;;
25449;SDS011;13371;52.080;5.624;2023-11-22T03:00:41;15.68;;;8.70;;
25449;SDS011;13371;52.080;5.624;2023-11-22T03:03:07;17.33;;;9.23;;
25449;SDS011;13371;52.080;5.624;2023-11-22T03:05:35;13.50;;;7.97;;
25449;SDS011;13371;52.080;5.624;2023-11-22T03:08:05;14.85;;;8.43;;
25449;SDS011;13371;52.080;5.624;2023-11-22T03:10:32;15.93;;;8.00;;
25449;SDS011;13371;52.080;5.624;2023-11-22T03:13:01;16.75;;;9.13;;
25449;SDS011;13371;52.080;5.624;2023-11-22T03:15:27;17.88;;;9.30;;
25449;SDS011;13371;52.080;5.624;2023-11-22T03:17:52;17.45;;;8.95;;
25449;SDS011;13371;52.080;5.624;2023-11-22T03:20:18;19.77;;;8.93;;
25449;SDS011;13371;52.080;5.624;2023-11-22T03:22:44;17.92;;;9.43;;
25449;SDS011;13371;52.080;5.624;2023-11-22T03:25:10;16.42;;;8.63;;
25449;SDS011;13371;52.080;5.624;2023-11-22T03:27:38;15.23;;;9.25;;
25449;SDS011;13371;52.080;5.624;2023-11-22T03:30:05;16.85;;;8.65;;
25449;SDS011;13371;52.080;5.624;2023-11-22T03:32:34;18.15;;;9.52;;
25449;SDS011;13371;52.080;5.624;2023-11-22T03:35:02;19.73;;;9.88;;
25449;SDS011;13371;52.080;5.624;2023-11-22T03:37:30;18.85;;;9.07;;
25449;SDS011;13371;52.080;5.624;2023-11-22T03:39:55;16.45;;;8.95;;
25449;SDS011;13371;52.080;5.624;2023-11-22T03:42:21;15.30;;;8.45;;
25449;SDS011;13371;52.080;5.624;2023-11-22T03:44:46;14.32;;;8.50;;
25449;SDS011;13371;52.080;5.624;2023-11-22T03:47:14;16.40;;;9.38;;
25449;SDS011;13371;52.080;5.624;2023-11-22T03:49:40;18.55;;;9.27;;
25449;SDS011;13371;52.080;5.624;2023-11-22T03:52:07;16.08;;;8.60;;
25449;SDS011;13371;52.080;5.624;2023-11-22T03:54:35;18.58;;;9.73;;
25449;SDS011;13371;52.080;5.624;2023-11-22T03:57:01;16.60;;;9.10;;
25449;SDS011;13371;52.080;5.624;2023-11-22T03:59:27;15.15;;;7.75;;
25449;SDS011;13371;52.080;5.624;2023-11-22T04:01:53;17.38;;;9.02;;
25449;SDS011;13371;52.080;5.624;2023-11-22T04:04:19;14.63;;;7.93;;
25449;SDS011;13371;52.080;5.624;2023-11-22T04:06:45;15.73;;;8.13;;
25449;SDS011;13371;52.080;5.624;2023-11-22T04:09:10;15.30;;;8.13;;
25449;SDS011;13371;52.080;5.624;2023-11-22T04:11:39;14.40;;;7.30;;
25449;SDS011;13371;52.080;5.624;2023-11-22T04:14:05;17.83;;;8.23;;
25449;SDS011;13371;52.080;5.624;2023-11-22T04:16:31;16.48;;;7.93;;
25449;SDS011;13371;52.080;5.624;2023-11-22T04:18:57;15.52;;;7.72;;
25449;SDS011;13371;52.080;5.624;2023-11-22T04:21:23;13.55;;;7.88;;
25449;SDS011;13371;52.080;5.624;2023-11-22T04:23:49;15.40;;;7.38;;
25449;SDS011;13371;52.080;5.624;2023-11-22T04:26:14;13.48;;;7.47;;
25449;SDS011;13371;52.080;5.624;2023-11-22T04:28:40;16.83;;;7.90;;
25449;SDS011;13371;52.080;5.624;2023-11-22T04:31:06;12.05;;;7.90;;
25449;SDS011;13371;52.080;5.624;2023-11-22T04:33:33;14.25;;;6.93;;
25449;SDS011;13371;52.080;5.624;2023-11-22T04:35:59;16.10;;;8.10;;
25449;SDS011;13371;52.080;5.624;2023-11-22T04:38:25;16.70;;;8.52;;
25449;SDS011;13371;52.080;5.624;2023-11-22T04:40:51;17.23;;;8.18;;
25449;SDS011;13371;52.080;5.624;2023-11-22T04:43:17;15.50;;;7.93;;
25449;SDS011;13371;52.080;5.624;2023-11-22T04:45:42;14.32;;;7.90;;
25449;SDS011;13371;52.080;5.624;2023-11-22T04:48:08;17.17;;;8.48;;
25449;SDS011;13371;52.080;5.624;2023-11-22T04:50:34;15.90;;;6.97;;
25449;SDS011;13371;52.080;5.624;2023-11-22T04:53:00;12.70;;;6.60;;
25449;SDS011;13371;52.080;5.624;2023-11-22T04:55:26;14.30;;;7.22;;
25449;SDS011;13371;52.080;5.624;2023-11-22T04:57:53;13.52;;;7.63;;
25449;SDS011;13371;52.080;5.624;2023-11-22T05:00:19;12.65;;;7.32;;
25449;SDS011;13371;52.080;5.624;2023-11-22T05:02:45;16.02;;;7.53;;
25449;SDS011;13371;52.080;5.624;2023-11-22T05:05:11;15.13;;;7.75;;
25449;SDS011;13371;52.080;5.624;2023-11-22T05:07:36;17.55;;;6.90;;
25449;SDS011;13371;52.080;5.624;2023-11-22T05:10:03;16.55;;;8.38;;
25449;SDS011;13371;52.080;5.624;2023-11-22T05:12:30;14.05;;;7.32;;
25449;SDS011;13371;52.080;5.624;2023-11-22T05:14:56;11.98;;;6.88;;
25449;SDS011;13371;52.080;5.624;2023-11-22T05:17:22;16.20;;;8.10;;
25449;SDS011;13371;52.080;5.624;2023-11-22T05:19:48;14.90;;;7.03;;
25449;SDS011;13371;52.080;5.624;2023-11-22T05:22:14;11.23;;;7.07;;
25449;SDS011;13371;52.080;5.624;2023-11-22T05:24:40;18.40;;;7.35;;
25449;SDS011;13371;52.080;5.624;2023-11-22T05:27:06;16.67;;;8.32;;
25449;SDS011;13371;52.080;5.624;2023-11-22T05:29:32;13.18;;;7.60;;
25449;SDS011;13371;52.080;5.624;2023-11-22T05:31:59;13.30;;;7.63;;
25449;SDS011;13371;52.080;5.624;2023-11-22T05:34:24;15.60;;;7.18;;
25449;SDS011;13371;52.080;5.624;2023-11-22T05:36:50;16.17;;;7.50;;
25449;SDS011;13371;52.080;5.624;2023-11-22T05:39:17;15.55;;;7.50;;
25449;SDS011;13371;52.080;5.624;2023-11-22T05:41:42;14.80;;;8.15;;
25449;SDS011;13371;52.080;5.624;2023-11-22T05:44:08;13.32;;;7.63;;
25449;SDS011;13371;52.080;5.624;2023-11-22T05:46:34;16.63;;;8.13;;
25449;SDS011;13371;52.080;5.624;2023-11-22T05:48:59;18.88;;;7.28;;
25449;SDS011;13371;52.080;5.624;2023-11-22T05:51:25;16.45;;;7.90;;
25449;SDS011;13371;52.080;5.624;2023-11-22T05:53:51;13.65;;;7.32;;
25449;SDS011;13371;52.080;5.624;2023-11-22T05:56:17;20.63;;;7.93;;
25449;SDS011;13371;52.080;5.624;2023-11-22T05:58:44;14.82;;;8.52;;
25449;SDS011;13371;52.080;5.624;2023-11-22T06:01:09;16.17;;;7.65;;
25449;SDS011;13371;52.080;5.624;2023-11-22T06:03:37;13.05;;;7.65;;
25449;SDS011;13371;52.080;5.624;2023-11-22T06:06:03;15.32;;;8.13;;
25449;SDS011;13371;52.080;5.624;2023-11-22T06:08:29;20.38;;;8.30;;
25449;SDS011;13371;52.080;5.624;2023-11-22T06:10:55;15.77;;;7.72;;
25449;SDS011;13371;52.080;5.624;2023-11-22T06:13:23;14.68;;;7.63;;
25449;SDS011;13371;52.080;5.624;2023-11-22T06:15:48;15.43;;;7.82;;
25449;SDS011;13371;52.080;5.624;2023-11-22T06:18:14;15.70;;;8.07;;
25449;SDS011;13371;52.080;5.624;2023-11-22T06:20:40;14.30;;;7.03;;
25449;SDS011;13371;52.080;5.624;2023-11-22T06:23:07;17.33;;;8.48;;
25449;SDS011;13371;52.080;5.624;2023-11-22T06:25:33;15.43;;;7.97;;
25449;SDS011;13371;52.080;5.624;2023-11-22T06:28:00;16.33;;;7.68;;
25449;SDS011;13371;52.080;5.624;2023-11-22T06:30:26;14.85;;;7.68;;
25449;SDS011;13371;52.080;5.624;2023-11-22T06:32:52;12.98;;;7.57;;
25449;SDS011;13371;52.080;5.624;2023-11-22T06:35:18;13.35;;;7.30;;
25449;SDS011;13371;52.080;5.624;2023-11-22T06:37:44;16.90;;;8.48;;
25449;SDS011;13371;52.080;5.624;2023-11-22T06:40:10;15.05;;;8.20;;
25449;SDS011;13371;52.080;5.624;2023-11-22T06:42:43;13.10;;;7.80;;
25449;SDS011;13371;52.080;5.624;2023-11-22T06:45:08;14.45;;;7.60;;
25449;SDS011;13371;52.080;5.624;2023-11-22T06:47:41;13.40;;;7.53;;
25449;SDS011;13371;52.080;5.624;2023-11-22T06:50:08;16.05;;;8.00;;
25449;SDS011;13371;52.080;5.624;2023-11-22T06:52:37;12.38;;;7.60;;
25449;SDS011;13371;52.080;5.624;2023-11-22T06:55:07;15.50;;;8.45;;
25449;SDS011;13371;52.080;5.624;2023-11-22T06:57:34;14.57;;;8.23;;
25449;SDS011;13371;52.080;5.624;2023-11-22T07:00:00;17.17;;;8.50;;
25449;SDS011;13371;52.080;5.624;2023-11-22T07:02:30;16.50;;;8.07;;
25449;SDS011;13371;52.080;5.624;2023-11-22T07:04:56;15.30;;;8.30;;
25449;SDS011;13371;52.080;5.624;2023-11-22T07:07:24;19.95;;;9.50;;
25449;SDS011;13371;52.080;5.624;2023-11-22T07:09:50;27.02;;;13.98;;
25449;SDS011;13371;52.080;5.624;2023-11-22T07:12:15;20.63;;;12.35;;
25449;SDS011;13371;52.080;5.624;2023-11-22T07:14:41;23.17;;;11.70;;
25449;SDS011;13371;52.080;5.624;2023-11-22T07:17:08;20.98;;;12.07;;
25449;SDS011;13371;52.080;5.624;2023-11-22T07:19:34;25.45;;;11.13;;
25449;SDS011;13371;52.080;5.624;2023-11-22T07:22:03;21.25;;;11.52;;
25449;SDS011;13371;52.080;5.624;2023-11-22T07:24:29;20.40;;;10.48;;
25449;SDS011;13371;52.080;5.624;2023-11-22T07:26:59;21.30;;;11.93;;
25449;SDS011;13371;52.080;5.624;2023-11-22T07:29:25;23.90;;;11.15;;
25449;SDS011;13371;52.080;5.624;2023-11-22T07:31:54;24.27;;;11.95;;
25449;SDS011;13371;52.080;5.624;2023-11-22T07:34:21;20.25;;;12.07;;
25449;SDS011;13371;52.080;5.624;2023-11-22T07:36:47;23.83;;;11.77;;
25449;SDS011;13371;52.080;5.624;2023-11-22T07:39:12;21.88;;;12.52;;
25449;SDS011;13371;52.080;5.624;2023-11-22T07:41:38;22.98;;;12.70;;
25449;SDS011;13371;52.080;5.624;2023-11-22T07:44:03;24.65;;;12.30;;
25449;SDS011;13371;52.080;5.624;2023-11-22T07:46:30;26.77;;;12.13;;
25449;SDS011;13371;52.080;5.624;2023-11-22T07:48:55;23.10;;;12.15;;
25449;SDS011;13371;52.080;5.624;2023-11-22T07:51:22;21.23;;;12.20;;
25449;SDS011;13371;52.080;5.624;2023-11-22T07:53:49;23.40;;;11.65;;
25449;SDS011;13371;52.080;5.624;2023-11-22T07:56:14;20.48;;;11.57;;
25449;SDS011;13371;52.080;5.624;2023-11-22T07:58:40;19.27;;;10.55;;
25449;SDS011;13371;52.080;5.624;2023-11-22T08:01:06;26.30;;;14.45;;
25449;SDS011;13371;52.080;5.624;2023-11-22T08:03:38;22.92;;;13.35;;
25449;SDS011;13371;52.080;5.624;2023-11-22T08:06:09;25.63;;;13.50;;
25449;SDS011;13371;52.080;5.624;2023-11-22T08:08:35;30.77;;;15.95;;
25449;SDS011;13371;52.080;5.624;2023-11-22T08:11:04;30.65;;;16.17;;
25449;SDS011;13371;52.080;5.624;2023-11-22T08:13:39;27.20;;;14.93;;
25449;SDS011;13371;52.080;5.624;2023-11-22T08:16:08;28.77;;;14.95;;
25449;SDS011;13371;52.080;5.624;2023-11-22T08:18:34;29.42;;;15.68;;
25449;SDS011;13371;52.080;5.624;2023-11-22T08:21:00;25.27;;;13.73;;
25449;SDS011;13371;52.080;5.624;2023-11-22T08:23:25;23.75;;;12.40;;
25449;SDS011;13371;52.080;5.624;2023-11-22T08:25:55;20.55;;;10.85;;
25449;SDS011;13371;52.080;5.624;2023-11-22T08:28:22;20.05;;;10.23;;
25449;SDS011;13371;52.080;5.624;2023-11-22T08:30:47;17.50;;;10.32;;
25449;SDS011;13371;52.080;5.624;2023-11-22T08:33:13;20.58;;;10.77;;
25449;SDS011;13371;52.080;5.624;2023-11-22T08:35:38;22.48;;;11.55;;
25449;SDS011;13371;52.080;5.624;2023-11-22T08:38:04;19.45;;;10.73;;
25449;SDS011;13371;52.080;5.624;2023-11-22T08:40:34;20.60;;;11.02;;
25449;SDS011;13371;52.080;5.624;2023-11-22T08:43:02;20.20;;;10.48;;
25449;SDS011;13371;52.080;5.624;2023-11-22T08:45:29;20.02;;;10.88;;
25449;SDS011;13371;52.080;5.624;2023-11-22T08:47:56;18.38;;;10.93;;
25449;SDS011;13371;52.080;5.624;2023-11-22T08:50:22;21.00;;;11.10;;
25449;SDS011;13371;52.080;5.624;2023-11-22T08:52:48;24.98;;;10.65;;
25449;SDS011;13371;52.080;5.624;2023-11-22T08:55:17;23.83;;;12.25;;
25449;SDS011;13371;52.080;5.624;2023-11-22T08:57:50;19.67;;;10.88;;
25449;SDS011;13371;52.080;5.624;2023-11-22T09:00:16;20.80;;;11.23;;
25449;SDS011;13371;52.080;5.624;2023-11-22T09:02:47;22.77;;;11.80;;
25449;SDS011;13371;52.080;5.624;2023-11-22T09:05:13;24.52;;;12.32;;
25449;SDS011;13371;52.080;5.624;2023-11-22T09:07:41;25.90;;;12.48;;
25449;SDS011;13371;52.080;5.624;2023-11-22T09:10:09;24.70;;;13.10;;
25449;SDS011;13371;52.080;5.624;2023-11-22T09:12:38;24.83;;;12.45;;
25449;SDS011;13371;52.080;5.624;2023-11-22T09:15:07;27.80;;;13.23;;
25449;SDS011;13371;52.080;5.624;2023-11-22T09:17:35;33.10;;;15.20;;
25449;SDS011;13371;52.080;5.624;2023-11-22T09:22:52;31.00;;;14.73;;
25449;SDS011;13371;52.080;5.624;2023-11-22T09:25:26;29.88;;;15.30;;
25449;SDS011;13371;52.080;5.624;2023-11-22T09:27:56;33.33;;;16.52;;
25449;SDS011;13371;52.080;5.624;2023-11-22T09:30:26;29.25;;;15.30;;
25449;SDS011;13371;52.080;5.624;2023-11-22T09:35:34;33.65;;;16.05;;
25449;SDS011;13371;52.080;5.624;2023-11-22T09:38:01;33.78;;;16.30;;
25449;SDS011;13371;52.080;5.624;2023-11-22T09:40:29;31.73;;;16.13;;
25449;SDS011;13371;52.080;5.624;2023-11-22T09:42:56;34.67;;;17.38;;
25449;SDS011;13371;52.080;5.624;2023-11-22T09:45:23;27.52;;;14.88;;
25449;SDS011;13371;52.080;5.624;2023-11-22T09:47:50;29.35;;;16.67;;
25449;SDS011;13371;52.080;5.624;2023-11-22T09:50:24;25.95;;;14.13;;
25449;SDS011;13371;52.080;5.624;2023-11-22T09:53:00;30.00;;;16.20;;
25449;SDS011;13371;52.080;5.624;2023-11-22T09:55:28;30.65;;;16.52;;
25449;SDS011;13371;52.080;5.624;2023-11-22T09:57:55;33.05;;;14.43;;
25449;SDS011;13371;52.080;5.624;2023-11-22T10:00:24;29.35;;;15.20;;
25449;SDS011;13371;52.080;5.624;2023-11-22T10:02:53;27.25;;;14.80;;
25449;SDS011;13371;52.080;5.624;2023-11-22T10:05:19;25.10;;;13.23;;
25449;SDS011;13371;52.080;5.624;2023-11-22T10:07:45;25.77;;;12.82;;
25449;SDS011;13371;52.080;5.624;2023-11-22T10:10:13;28.15;;;13.85;;
25449;SDS011;13371;52.080;5.624;2023-11-22T10:12:40;26.65;;;13.82;;
25449;SDS011;13371;52.080;5.624;2023-11-22T10:15:14;28.80;;;14.00;;
25449;SDS011;13371;52.080;5.624;2023-11-22T10:17:41;24.00;;;13.73;;
25449;SDS011;13371;52.080;5.624;2023-11-22T10:20:21;24.92;;;12.57;;
25449;SDS011;13371;52.080;5.624;2023-11-22T10:22:51;28.13;;;13.13;;
25449;SDS011;13371;52.080;5.624;2023-11-22T10:25:17;26.73;;;16.80;;
25449;SDS011;13371;52.080;5.624;2023-11-22T10:27:44;28.48;;;14.13;;
25449;SDS011;13371;52.080;5.624;2023-11-22T10:30:12;26.48;;;13.25;;
25449;SDS011;13371;52.080;5.624;2023-11-22T10:32:40;26.63;;;13.40;;
25449;SDS011;13371;52.080;5.624;2023-11-22T10:35:07;23.60;;;12.48;;
25449;SDS011;13371;52.080;5.624;2023-11-22T10:37:34;26.13;;;13.30;;
25449;SDS011;13371;52.080;5.624;2023-11-22T10:40:00;26.15;;;12.95;;
25449;SDS011;13371;52.080;5.624;2023-11-22T10:42:27;27.10;;;12.73;;
25449;SDS011;13371;52.080;5.624;2023-11-22T10:44:56;27.52;;;12.68;;
25449;SDS011;13371;52.080;5.624;2023-11-22T10:47:24;25.63;;;13.38;;
25449;SDS011;13371;52.080;5.624;2023-11-22T10:49:54;23.40;;;12.88;;
25449;SDS011;13371;52.080;5.624;2023-11-22T10:52:21;26.20;;;13.13;;
25449;SDS011;13371;52.080;5.624;2023-11-22T10:54:53;26.00;;;14.27;;
25449;SDS011;13371;52.080;5.624;2023-11-22T10:57:27;28.13;;;13.25;;
25449;SDS011;13371;52.080;5.624;2023-11-22T10:59:57;25.85;;;12.48;;
25449;SDS011;13371;52.080;5.624;2023-11-22T11:02:35;30.30;;;13.48;;
25449;SDS011;13371;52.080;5.624;2023-11-22T11:05:10;24.42;;;12.80;;
25449;SDS011;13371;52.080;5.624;2023-11-22T11:07:47;23.45;;;12.70;;
25449;SDS011;13371;52.080;5.624;2023-11-22T11:10:18;22.38;;;11.55;;
25449;SDS011;13371;52.080;5.624;2023-11-22T11:12:46;21.95;;;11.63;;
25449;SDS011;13371;52.080;5.624;2023-11-22T11:15:11;22.98;;;12.38;;
25449;SDS011;13371;52.080;5.624;2023-11-22T11:17:38;23.90;;;10.68;;
25449;SDS011;13371;52.080;5.624;2023-11-22T11:20:04;22.88;;;11.60;;
25449;SDS011;13371;52.080;5.624;2023-11-22T11:22:32;20.33;;;11.13;;
25449;SDS011;13371;52.080;5.624;2023-11-22T11:25:04;19.73;;;9.88;;
25449;SDS011;13371;52.080;5.624;2023-11-22T11:27:32;19.27;;;10.30;;
25449;SDS011;13371;52.080;5.624;2023-11-22T11:30:01;21.42;;;10.60;;
25449;SDS011;13371;52.080;5.624;2023-11-22T11:32:46;22.05;;;9.52;;
25449;SDS011;13371;52.080;5.624;2023-11-22T11:35:17;18.27;;;10.02;;
25449;SDS011;13371;52.080;5.624;2023-11-22T11:37:46;17.27;;;9.43;;
25449;SDS011;13371;52.080;5.624;2023-11-22T11:40:24;14.85;;;9.43;;
25449;SDS011;13371;52.080;5.624;2023-11-22T11:42:51;16.73;;;9.88;;
25449;SDS011;13371;52.080;5.624;2023-11-22T11:45:17;18.23;;;9.77;;
25449;SDS011;13371;52.080;5.624;2023-11-22T11:47:42;16.73;;;9.38;;
25449;SDS011;13371;52.080;5.624;2023-11-22T11:50:09;17.73;;;9.50;;
25449;SDS011;13371;52.080;5.624;2023-11-22T11:52:38;18.67;;;10.57;;
25449;SDS011;13371;52.080;5.624;2023-11-22T11:55:04;19.35;;;10.13;;
25449;SDS011;13371;52.080;5.624;2023-11-22T11:57:31;16.38;;;10.02;;
25449;SDS011;13371;52.080;5.624;2023-11-22T11:59:57;21.42;;;11.25;;
25449;SDS011;13371;52.080;5.624;2023-11-22T12:02:24;21.27;;;11.00;;
25449;SDS011;13371;52.080;5.624;2023-11-22T12:04:49;17.13;;;10.02;;
25449;SDS011;13371;52.080;5.624;2023-11-22T12:07:15;20.80;;;11.52;;
25449;SDS011;13371;52.080;5.624;2023-11-22T12:09:40;26.55;;;11.98;;
25449;SDS011;13371;52.080;5.624;2023-11-22T12:12:06;24.55;;;11.68;;
25449;SDS011;13371;52.080;5.624;2023-11-22T12:14:32;24.48;;;13.57;;
25449;SDS011;13371;52.080;5.624;2023-11-22T12:16:58;23.13;;;12.23;;
25449;SDS011;13371;52.080;5.624;2023-11-22T12:19:25;26.38;;;12.30;;
25449;SDS011;13371;52.080;5.624;2023-11-22T12:21:53;26.75;;;12.98;;
25449;SDS011;13371;52.080;5.624;2023-11-22T12:24:19;25.45;;;13.73;;
25449;SDS011;13371;52.080;5.624;2023-11-22T12:26:48;24.90;;;12.40;;
25449;SDS011;13371;52.080;5.624;2023-11-22T12:29:15;25.08;;;13.60;;
25449;SDS011;13371;52.080;5.624;2023-11-22T12:31:48;24.30;;;12.93;;
25449;SDS011;13371;52.080;5.624;2023-11-22T12:34:20;25.23;;;13.70;;
25449;SDS011;13371;52.080;5.624;2023-11-22T12:36:46;25.20;;;13.05;;
25449;SDS011;13371;52.080;5.624;2023-11-22T12:39:12;24.55;;;13.25;;
25449;SDS011;13371;52.080;5.624;2023-11-22T12:41:45;23.77;;;12.38;;
25449;SDS011;13371;52.080;5.624;2023-11-22T12:44:15;25.83;;;12.85;;
25449;SDS011;13371;52.080;5.624;2023-11-22T12:46:51;25.38;;;12.60;;
25449;SDS011;13371;52.080;5.624;2023-11-22T12:49:22;27.95;;;13.00;;
25449;SDS011;13371;52.080;5.624;2023-11-22T12:51:49;30.92;;;13.25;;
25449;SDS011;13371;52.080;5.624;2023-11-22T12:54:15;27.52;;;13.95;;
25449;SDS011;13371;52.080;5.624;2023-11-22T12:56:41;25.48;;;13.20;;
25449;SDS011;13371;52.080;5.624;2023-11-22T12:59:07;29.75;;;13.15;;
25449;SDS011;13371;52.080;5.624;2023-11-22T13:01:34;33.40;;;14.23;;
25449;SDS011;13371;52.080;5.624;2023-11-22T13:04:00;27.70;;;12.88;;
25449;SDS011;13371;52.080;5.624;2023-11-22T13:06:25;29.75;;;14.30;;
25449;SDS011;13371;52.080;5.624;2023-11-22T13:08:51;34.03;;;15.25;;
25449;SDS011;13371;52.080;5.624;2023-11-22T13:11:18;29.90;;;14.48;;
25449;SDS011;13371;52.080;5.624;2023-11-22T13:13:44;35.88;;;16.08;;
25449;SDS011;13371;52.080;5.624;2023-11-22T13:16:11;30.95;;;15.13;;
25449;SDS011;13371;52.080;5.624;2023-11-22T13:18:37;34.58;;;15.15;;
25449;SDS011;13371;52.080;5.624;2023-11-22T13:21:03;30.45;;;15.70;;
25449;SDS011;13371;52.080;5.624;2023-11-22T13:23:29;38.60;;;16.48;;
25449;SDS011;13371;52.080;5.624;2023-11-22T13:25:54;38.08;;;16.90;;
25449;SDS011;13371;52.080;5.624;2023-11-22T13:28:20;37.03;;;16.05;;
25449;SDS011;13371;52.080;5.624;2023-11-22T13:30:46;36.53;;;15.65;;
25449;SDS011;13371;52.080;5.624;2023-11-22T13:33:14;36.92;;;15.40;;
25449;SDS011;13371;52.080;5.624;2023-11-22T13:35:39;37.78;;;17.33;;
25449;SDS011;13371;52.080;5.624;2023-11-22T13:38:05;42.03;;;16.98;;
25449;SDS011;13371;52.080;5.624;2023-11-22T13:40:36;41.38;;;17.65;;
25449;SDS011;13371;52.080;5.624;2023-11-22T13:43:04;40.92;;;16.90;;
25449;SDS011;13371;52.080;5.624;2023-11-22T13:45:31;42.28;;;17.27;;
25449;SDS011;13371;52.080;5.624;2023-11-22T13:47:56;36.53;;;17.00;;
25449;SDS011;13371;52.080;5.624;2023-11-22T13:50:25;36.45;;;16.27;;
25449;SDS011;13371;52.080;5.624;2023-11-22T13:52:52;31.88;;;14.48;;
25449;SDS011;13371;52.080;5.624;2023-11-22T13:55:19;30.98;;;15.23;;
25449;SDS011;13371;52.080;5.624;2023-11-22T13:57:55;31.35;;;14.05;;
25449;SDS011;13371;52.080;5.624;2023-11-22T14:00:26;32.00;;;15.35;;
25449;SDS011;13371;52.080;5.624;2023-11-22T14:02:57;31.80;;;15.97;;
25449;SDS011;13371;52.080;5.624;2023-11-22T14:05:29;30.70;;;15.70;;
25449;SDS011;13371;52.080;5.624;2023-11-22T14:07:55;29.50;;;15.30;;
25449;SDS011;13371;52.080;5.624;2023-11-22T14:10:21;31.77;;;15.10;;
25449;SDS011;13371;52.080;5.624;2023-11-22T14:12:47;26.63;;;13.57;;
25449;SDS011;13371;52.080;5.624;2023-11-22T14:15:14;25.30;;;14.50;;
25449;SDS011;13371;52.080;5.624;2023-11-22T14:17:40;30.58;;;14.95;;
25449;SDS011;13371;52.080;5.624;2023-11-22T14:20:06;27.95;;;14.45;;
25449;SDS011;13371;52.080;5.624;2023-11-22T14:22:34;33.58;;;15.70;;
25449;SDS011;13371;52.080;5.624;2023-11-22T14:25:00;28.90;;;15.43;;
25449;SDS011;13371;52.080;5.624;2023-11-22T14:27:27;29.17;;;15.00;;
25449;SDS011;13371;52.080;5.624;2023-11-22T14:29:54;29.73;;;15.02;;
25449;SDS011;13371;52.080;5.624;2023-11-22T14:32:20;28.83;;;14.82;;
25449;SDS011;13371;52.080;5.624;2023-11-22T14:34:46;30.17;;;15.45;;